sensor_id;sensor_type;location;lat;lon;timestamp;P1;durP1;ratioP1;P2;durP2;ratioP2
6832;SDS011;3454;42.654;23.378;2024-03-23T00:55:35;0.73;;;0.20;;
6832;SDS011;3454;42.654;23.378;2024-03-23T00:58:00;3.60;;;0.90;;
6832;SDS011;3454;42.654;23.378;2024-03-23T01:00:26;0.57;;;0.57;;
6832;SDS011;3454;42.654;23.378;2024-03-23T01:02:52;0.50;;;0.50;;
6832;SDS011;3454;42.654;23.378;2024-03-23T01:05:17;1.17;;;0.70;;
6832;SDS011;3454;42.654;23.378;2024-03-23T01:07:43;0.33;;;0.33;;
6832;SDS011;3454;42.654;23.378;2024-03-23T01:10:08;0.70;;;0.70;;
6832;SDS011;3454;42.654;23.378;2024-03-23T01:12:34;1.13;;;0.43;;
6832;SDS011;3454;42.654;23.378;2024-03-23T01:14:59;0.57;;;0.57;;
6832;SDS011;3454;42.654;23.378;2024-03-23T01:17:25;1.27;;;0.97;;
6832;SDS011;3454;42.654;23.378;2024-03-23T01:19:51;0.57;;;0.57;;
6832;SDS011;3454;42.654;23.378;2024-03-23T01:22:18;0.80;;;0.70;;
6832;SDS011;3454;42.654;23.378;2024-03-23T01:24:44;1.63;;;0.67;;
6832;SDS011;3454;42.654;23.378;2024-03-23T01:27:09;0.53;;;0.50;;
6832;SDS011;3454;42.654;23.378;2024-03-23T01:29:35;0.67;;;0.67;;
6832;SDS011;3454;42.654;23.378;2024-03-23T01:32:01;3.13;;;0.73;;
6832;SDS011;3454;42.654;23.378;2024-03-23T01:34:27;0.87;;;0.83;;
6832;SDS011;3454;42.654;23.378;2024-03-23T01:36:53;0.20;;;0.20;;
6832;SDS011;3454;42.654;23.378;2024-03-23T01:39:19;1.33;;;0.60;;
6832;SDS011;3454;42.654;23.378;2024-03-23T01:41:44;0.60;;;0.57;;
6832;SDS011;3454;42.654;23.378;2024-03-23T01:44:10;0.73;;;0.73;;
6832;SDS011;3454;42.654;23.378;2024-03-23T01:46:36;0.27;;;0.27;;
6832;SDS011;3454;42.654;23.378;2024-03-23T01:49:03;0.73;;;0.70;;
6832;SDS011;3454;42.654;23.378;2024-03-23T01:51:30;0.47;;;0.47;;
6832;SDS011;3454;42.654;23.378;2024-03-23T01:53:57;0.83;;;0.50;;
6832;SDS011;3454;42.654;23.378;2024-03-23T01:56:28;1.23;;;0.27;;
6832;SDS011;3454;42.654;23.378;2024-03-23T01:58:55;0.87;;;0.30;;
6832;SDS011;3454;42.654;23.378;2024-03-23T02:01:21;0.70;;;0.67;;
6832;SDS011;3454;42.654;23.378;2024-03-23T02:03:46;0.70;;;0.63;;
6832;SDS011;3454;42.654;23.378;2024-03-23T02:06:12;0.40;;;0.40;;
6832;SDS011;3454;42.654;23.378;2024-03-23T02:08:38;1.70;;;0.60;;
6832;SDS011;3454;42.654;23.378;2024-03-23T02:11:05;0.67;;;0.67;;
6832;SDS011;3454;42.654;23.378;2024-03-23T02:13:30;0.30;;;0.30;;
6832;SDS011;3454;42.654;23.378;2024-03-23T02:15:57;0.30;;;0.30;;
6832;SDS011;3454;42.654;23.378;2024-03-23T02:18:23;0.37;;;0.37;;
6832;SDS011;3454;42.654;23.378;2024-03-23T02:20:48;0.87;;;0.57;;
6832;SDS011;3454;42.654;23.378;2024-03-23T02:23:14;0.80;;;0.60;;
6832;SDS011;3454;42.654;23.378;2024-03-23T02:25:41;0.50;;;0.50;;
6832;SDS011;3454;42.654;23.378;2024-03-23T02:28:07;2.43;;;0.57;;
6832;SDS011;3454;42.654;23.378;2024-03-23T02:30:33;0.20;;;0.20;;
6832;SDS011;3454;42.654;23.378;2024-03-23T02:32:59;0.40;;;0.40;;
6832;SDS011;3454;42.654;23.378;2024-03-23T02:35:25;0.53;;;0.53;;
6832;SDS011;3454;42.654;23.378;2024-03-23T02:37:51;1.07;;;0.47;;
6832;SDS011;3454;42.654;23.378;2024-03-23T02:40:18;1.17;;;0.93;;
6832;SDS011;3454;42.654;23.378;2024-03-23T02:42:45;1.00;;;0.80;;
6832;SDS011;3454;42.654;23.378;2024-03-23T02:45:11;1.37;;;0.70;;
6832;SDS011;3454;42.654;23.378;2024-03-23T02:47:37;1.07;;;0.97;;
6832;SDS011;3454;42.654;23.378;2024-03-23T02:50:03;1.07;;;1.00;;
6832;SDS011;3454;42.654;23.378;2024-03-23T02:52:29;0.93;;;0.83;;
6832;SDS011;3454;42.654;23.378;2024-03-23T02:54:55;0.60;;;0.60;;
6832;SDS011;3454;42.654;23.378;2024-03-23T02:57:20;0.70;;;0.70;;
6832;SDS011;3454;42.654;23.378;2024-03-23T02:59:46;0.73;;;0.70;;
6832;SDS011;3454;42.654;23.378;2024-03-23T03:02:12;0.70;;;0.47;;
6832;SDS011;3454;42.654;23.378;2024-03-23T03:04:39;1.37;;;1.20;;
6832;SDS011;3454;42.654;23.378;2024-03-23T03:07:06;0.37;;;0.37;;
6832;SDS011;3454;42.654;23.378;2024-03-23T03:09:31;1.60;;;0.80;;
6832;SDS011;3454;42.654;23.378;2024-03-23T03:11:58;1.30;;;0.37;;
6832;SDS011;3454;42.654;23.378;2024-03-23T03:14:23;5.20;;;1.03;;
6832;SDS011;3454;42.654;23.378;2024-03-23T03:16:49;0.73;;;0.73;;
6832;SDS011;3454;42.654;23.378;2024-03-23T03:19:15;0.47;;;0.47;;
6832;SDS011;3454;42.654;23.378;2024-03-23T03:21:42;0.67;;;0.50;;
6832;SDS011;3454;42.654;23.378;2024-03-23T03:24:08;1.03;;;0.70;;
6832;SDS011;3454;42.654;23.378;2024-03-23T03:26:34;1.80;;;0.60;;
6832;SDS011;3454;42.654;23.378;2024-03-23T03:28:59;0.73;;;0.47;;
6832;SDS011;3454;42.654;23.378;2024-03-23T03:31:26;0.73;;;0.73;;
6832;SDS011;3454;42.654;23.378;2024-03-23T03:33:51;0.53;;;0.50;;
6832;SDS011;3454;42.654;23.378;2024-03-23T03:36:17;1.80;;;0.80;;
6832;SDS011;3454;42.654;23.378;2024-03-23T03:38:43;2.07;;;0.40;;
6832;SDS011;3454;42.654;23.378;2024-03-23T03:41:08;0.90;;;0.30;;
6832;SDS011;3454;42.654;23.378;2024-03-23T03:43:34;0.53;;;0.50;;
6832;SDS011;3454;42.654;23.378;2024-03-23T03:46:00;1.07;;;0.70;;
6832;SDS011;3454;42.654;23.378;2024-03-23T03:48:28;0.30;;;0.30;;
6832;SDS011;3454;42.654;23.378;2024-03-23T03:50:54;1.07;;;0.80;;
6832;SDS011;3454;42.654;23.378;2024-03-23T03:53:20;0.87;;;0.77;;
6832;SDS011;3454;42.654;23.378;2024-03-23T03:55:46;0.90;;;0.87;;
6832;SDS011;3454;42.654;23.378;2024-03-23T03:58:12;0.60;;;0.37;;
6832;SDS011;3454;42.654;23.378;2024-03-23T04:00:38;0.23;;;0.23;;
6832;SDS011;3454;42.654;23.378;2024-03-23T04:03:03;1.00;;;0.60;;
6832;SDS011;3454;42.654;23.378;2024-03-23T04:05:29;1.20;;;1.07;;
6832;SDS011;3454;42.654;23.378;2024-03-23T04:07:55;0.30;;;0.30;;
6832;SDS011;3454;42.654;23.378;2024-03-23T04:10:21;0.30;;;0.30;;
6832;SDS011;3454;42.654;23.378;2024-03-23T04:12:46;0.67;;;0.67;;
6832;SDS011;3454;42.654;23.378;2024-03-23T04:15:12;0.83;;;0.73;;
6832;SDS011;3454;42.654;23.378;2024-03-23T04:17:38;1.07;;;0.40;;
6832;SDS011;3454;42.654;23.378;2024-03-23T04:20:04;1.97;;;0.87;;
6832;SDS011;3454;42.654;23.378;2024-03-23T04:22:34;0.63;;;0.63;;
6832;SDS011;3454;42.654;23.378;2024-03-23T04:25:00;0.60;;;0.60;;
6832;SDS011;3454;42.654;23.378;2024-03-23T04:27:31;1.57;;;0.77;;
6832;SDS011;3454;42.654;23.378;2024-03-23T04:30:00;0.10;;;0.10;;
6832;SDS011;3454;42.654;23.378;2024-03-23T04:32:26;0.30;;;0.30;;
6832;SDS011;3454;42.654;23.378;2024-03-23T04:34:53;1.20;;;0.87;;
6832;SDS011;3454;42.654;23.378;2024-03-23T04:37:20;0.43;;;0.43;;
6832;SDS011;3454;42.654;23.378;2024-03-23T04:39:46;0.53;;;0.53;;
6832;SDS011;3454;42.654;23.378;2024-03-23T04:42:14;0.47;;;0.20;;
6832;SDS011;3454;42.654;23.378;2024-03-23T04:44:40;0.60;;;0.60;;
6832;SDS011;3454;42.654;23.378;2024-03-23T04:47:05;1.17;;;0.90;;
6832;SDS011;3454;42.654;23.378;2024-03-23T04:49:31;0.20;;;0.20;;
6832;SDS011;3454;42.654;23.378;2024-03-23T04:52:06;1.83;;;0.80;;
6832;SDS011;3454;42.654;23.378;2024-03-23T04:54:31;0.40;;;0.40;;
6832;SDS011;3454;42.654;23.378;2024-03-23T04:56:57;0.83;;;0.77;;
6832;SDS011;3454;42.654;23.378;2024-03-23T04:59:23;0.33;;;0.30;;
6832;SDS011;3454;42.654;23.378;2024-03-23T05:01:56;1.50;;;0.77;;
6832;SDS011;3454;42.654;23.378;2024-03-23T05:04:23;0.33;;;0.33;;
6832;SDS011;3454;42.654;23.378;2024-03-23T05:06:48;2.90;;;1.00;;
6832;SDS011;3454;42.654;23.378;2024-03-23T05:09:14;1.30;;;0.40;;
6832;SDS011;3454;42.654;23.378;2024-03-23T05:11:40;0.50;;;0.50;;
6832;SDS011;3454;42.654;23.378;2024-03-23T05:14:10;1.43;;;0.70;;
6832;SDS011;3454;42.654;23.378;2024-03-23T05:16:40;0.63;;;0.63;;
6832;SDS011;3454;42.654;23.378;2024-03-23T05:19:05;0.37;;;0.37;;
6832;SDS011;3454;42.654;23.378;2024-03-23T05:21:31;0.47;;;0.47;;
6832;SDS011;3454;42.654;23.378;2024-03-23T05:23:57;0.40;;;0.40;;
6832;SDS011;3454;42.654;23.378;2024-03-23T05:26:22;0.80;;;0.73;;
6832;SDS011;3454;42.654;23.378;2024-03-23T05:28:48;0.40;;;0.40;;
6832;SDS011;3454;42.654;23.378;2024-03-23T05:31:23;0.87;;;0.43;;
6832;SDS011;3454;42.654;23.378;2024-03-23T05:33:53;0.60;;;0.60;;
6832;SDS011;3454;42.654;23.378;2024-03-23T05:36:19;0.30;;;0.30;;
6832;SDS011;3454;42.654;23.378;2024-03-23T05:38:45;1.03;;;0.70;;
6832;SDS011;3454;42.654;23.378;2024-03-23T05:41:11;0.27;;;0.23;;
6832;SDS011;3454;42.654;23.378;2024-03-23T05:43:36;0.60;;;0.60;;
6832;SDS011;3454;42.654;23.378;2024-03-23T05:46:02;0.53;;;0.43;;
6832;SDS011;3454;42.654;23.378;2024-03-23T05:48:30;1.40;;;0.97;;
6832;SDS011;3454;42.654;23.378;2024-03-23T05:50:56;1.40;;;0.47;;
6832;SDS011;3454;42.654;23.378;2024-03-23T05:53:23;0.77;;;0.60;;
6832;SDS011;3454;42.654;23.378;2024-03-23T05:55:50;1.60;;;0.50;;
6832;SDS011;3454;42.654;23.378;2024-03-23T05:58:18;1.13;;;0.80;;
6832;SDS011;3454;42.654;23.378;2024-03-23T06:00:47;0.87;;;0.87;;
6832;SDS011;3454;42.654;23.378;2024-03-23T06:03:13;0.57;;;0.57;;
6832;SDS011;3454;42.654;23.378;2024-03-23T06:05:38;0.43;;;0.43;;
6832;SDS011;3454;42.654;23.378;2024-03-23T06:08:04;0.83;;;0.70;;
6832;SDS011;3454;42.654;23.378;2024-03-23T06:10:31;0.33;;;0.30;;
6832;SDS011;3454;42.654;23.378;2024-03-23T06:12:57;1.00;;;1.00;;
6832;SDS011;3454;42.654;23.378;2024-03-23T06:15:24;2.37;;;0.73;;
6832;SDS011;3454;42.654;23.378;2024-03-23T06:17:50;0.73;;;0.40;;
6832;SDS011;3454;42.654;23.378;2024-03-23T06:20:15;1.43;;;0.60;;
6832;SDS011;3454;42.654;23.378;2024-03-23T06:22:41;1.93;;;0.50;;
6832;SDS011;3454;42.654;23.378;2024-03-23T06:25:07;1.33;;;0.80;;
6832;SDS011;3454;42.654;23.378;2024-03-23T06:27:33;0.70;;;0.63;;
6832;SDS011;3454;42.654;23.378;2024-03-23T06:29:59;0.60;;;0.60;;
6832;SDS011;3454;42.654;23.378;2024-03-23T06:32:25;1.20;;;0.87;;
6832;SDS011;3454;42.654;23.378;2024-03-23T06:34:52;1.07;;;1.07;;
6832;SDS011;3454;42.654;23.378;2024-03-23T06:37:18;1.03;;;0.97;;
6832;SDS011;3454;42.654;23.378;2024-03-23T06:39:45;1.33;;;0.73;;
6832;SDS011;3454;42.654;23.378;2024-03-23T06:42:11;3.40;;;1.20;;
6832;SDS011;3454;42.654;23.378;2024-03-23T06:44:38;1.03;;;0.97;;
6832;SDS011;3454;42.654;23.378;2024-03-23T06:47:04;1.03;;;0.70;;
6832;SDS011;3454;42.654;23.378;2024-03-23T06:49:30;1.83;;;1.30;;
6832;SDS011;3454;42.654;23.378;2024-03-23T06:51:56;2.27;;;1.53;;
6832;SDS011;3454;42.654;23.378;2024-03-23T06:54:22;1.60;;;0.87;;
6832;SDS011;3454;42.654;23.378;2024-03-23T06:56:49;1.03;;;0.93;;
6832;SDS011;3454;42.654;23.378;2024-03-23T06:59:15;2.63;;;1.40;;
6832;SDS011;3454;42.654;23.378;2024-03-23T07:01:41;2.00;;;1.60;;
6832;SDS011;3454;42.654;23.378;2024-03-23T07:04:07;1.70;;;1.23;;
6832;SDS011;3454;42.654;23.378;2024-03-23T07:06:33;3.03;;;1.83;;
6832;SDS011;3454;42.654;23.378;2024-03-23T07:08:58;1.67;;;1.00;;
6832;SDS011;3454;42.654;23.378;2024-03-23T07:11:24;0.77;;;0.77;;
6832;SDS011;3454;42.654;23.378;2024-03-23T07:13:50;3.27;;;1.73;;
6832;SDS011;3454;42.654;23.378;2024-03-23T07:16:17;4.00;;;2.07;;
6832;SDS011;3454;42.654;23.378;2024-03-23T07:18:43;1.97;;;1.20;;
6832;SDS011;3454;42.654;23.378;2024-03-23T07:21:09;2.73;;;1.63;;
6832;SDS011;3454;42.654;23.378;2024-03-23T07:23:34;3.00;;;1.17;;
6832;SDS011;3454;42.654;23.378;2024-03-23T07:26:02;4.47;;;1.60;;
6832;SDS011;3454;42.654;23.378;2024-03-23T07:28:30;5.30;;;2.10;;
6832;SDS011;3454;42.654;23.378;2024-03-23T07:31:08;3.17;;;1.70;;
6832;SDS011;3454;42.654;23.378;2024-03-23T07:33:36;2.20;;;1.73;;
6832;SDS011;3454;42.654;23.378;2024-03-23T07:36:03;3.37;;;1.70;;
6832;SDS011;3454;42.654;23.378;2024-03-23T07:38:29;3.60;;;1.87;;
6832;SDS011;3454;42.654;23.378;2024-03-23T07:41:05;2.27;;;2.07;;
6832;SDS011;3454;42.654;23.378;2024-03-23T07:43:35;3.60;;;1.90;;
6832;SDS011;3454;42.654;23.378;2024-03-23T07:46:05;3.53;;;2.03;;
6832;SDS011;3454;42.654;23.378;2024-03-23T07:48:31;3.87;;;2.77;;
6832;SDS011;3454;42.654;23.378;2024-03-23T07:51:01;3.20;;;2.30;;
6832;SDS011;3454;42.654;23.378;2024-03-23T07:53:56;4.87;;;2.47;;
6832;SDS011;3454;42.654;23.378;2024-03-23T07:56:21;2.70;;;2.03;;
6832;SDS011;3454;42.654;23.378;2024-03-23T07:58:48;3.73;;;2.17;;
6832;SDS011;3454;42.654;23.378;2024-03-23T08:01:15;2.67;;;2.17;;
6832;SDS011;3454;42.654;23.378;2024-03-23T08:03:42;3.13;;;2.37;;
6832;SDS011;3454;42.654;23.378;2024-03-23T08:06:11;3.13;;;2.87;;
6832;SDS011;3454;42.654;23.378;2024-03-23T08:08:39;7.23;;;2.30;;
6832;SDS011;3454;42.654;23.378;2024-03-23T08:11:05;7.03;;;3.10;;
6832;SDS011;3454;42.654;23.378;2024-03-23T08:13:31;1.90;;;1.60;;
6832;SDS011;3454;42.654;23.378;2024-03-23T08:15:58;10.53;;;2.67;;
6832;SDS011;3454;42.654;23.378;2024-03-23T08:18:27;4.93;;;2.63;;
6832;SDS011;3454;42.654;23.378;2024-03-23T08:21:00;2.67;;;2.13;;
6832;SDS011;3454;42.654;23.378;2024-03-23T08:23:29;4.83;;;2.53;;
6832;SDS011;3454;42.654;23.378;2024-03-23T08:25:57;4.33;;;2.93;;
6832;SDS011;3454;42.654;23.378;2024-03-23T08:28:24;5.40;;;3.53;;
6832;SDS011;3454;42.654;23.378;2024-03-23T08:30:50;5.30;;;2.80;;
6832;SDS011;3454;42.654;23.378;2024-03-23T08:33:16;4.03;;;2.23;;
6832;SDS011;3454;42.654;23.378;2024-03-23T08:35:41;5.17;;;2.27;;
6832;SDS011;3454;42.654;23.378;2024-03-23T08:38:07;7.63;;;2.37;;
6832;SDS011;3454;42.654;23.378;2024-03-23T08:40:33;3.90;;;2.37;;
6832;SDS011;3454;42.654;23.378;2024-03-23T08:42:59;2.73;;;2.10;;
6832;SDS011;3454;42.654;23.378;2024-03-23T08:45:25;4.07;;;2.23;;
6832;SDS011;3454;42.654;23.378;2024-03-23T08:47:51;2.37;;;2.00;;
6832;SDS011;3454;42.654;23.378;2024-03-23T08:50:17;4.27;;;3.03;;
6832;SDS011;3454;42.654;23.378;2024-03-23T08:52:44;2.23;;;1.70;;
6832;SDS011;3454;42.654;23.378;2024-03-23T08:55:09;4.47;;;2.70;;
6832;SDS011;3454;42.654;23.378;2024-03-23T08:57:35;3.60;;;2.37;;
6832;SDS011;3454;42.654;23.378;2024-03-23T09:00:01;4.47;;;3.23;;
6832;SDS011;3454;42.654;23.378;2024-03-23T09:02:28;5.97;;;2.43;;
6832;SDS011;3454;42.654;23.378;2024-03-23T09:04:53;4.93;;;2.93;;
6832;SDS011;3454;42.654;23.378;2024-03-23T09:07:19;3.67;;;2.70;;
6832;SDS011;3454;42.654;23.378;2024-03-23T09:09:45;4.03;;;2.33;;
6832;SDS011;3454;42.654;23.378;2024-03-23T09:12:10;2.90;;;1.73;;
6832;SDS011;3454;42.654;23.378;2024-03-23T09:14:36;2.65;;;2.35;;
6832;SDS011;3454;42.654;23.378;2024-03-23T09:17:02;4.53;;;2.67;;
6832;SDS011;3454;42.654;23.378;2024-03-23T09:19:30;5.45;;;2.70;;
6832;SDS011;3454;42.654;23.378;2024-03-23T09:21:56;4.97;;;2.17;;
6832;SDS011;3454;42.654;23.378;2024-03-23T09:24:23;4.40;;;2.25;;
6832;SDS011;3454;42.654;23.378;2024-03-23T09:26:48;3.05;;;2.25;;
6832;SDS011;3454;42.654;23.378;2024-03-23T09:29:14;4.47;;;2.28;;
6832;SDS011;3454;42.654;23.378;2024-03-23T09:31:39;4.10;;;2.15;;
6832;SDS011;3454;42.654;23.378;2024-03-23T09:34:06;3.92;;;1.70;;
6832;SDS011;3454;42.654;23.378;2024-03-23T09:36:31;3.53;;;2.70;;
6832;SDS011;3454;42.654;23.378;2024-03-23T09:38:57;2.55;;;2.20;;
6832;SDS011;3454;42.654;23.378;2024-03-23T09:41:23;2.25;;;1.65;;
6832;SDS011;3454;42.654;23.378;2024-03-23T09:43:48;2.55;;;1.58;;
6832;SDS011;3454;42.654;23.378;2024-03-23T09:46:17;3.10;;;2.17;;
6832;SDS011;3454;42.654;23.378;2024-03-23T09:48:43;4.45;;;2.22;;
6832;SDS011;3454;42.654;23.378;2024-03-23T09:51:11;5.10;;;2.80;;
6832;SDS011;3454;42.654;23.378;2024-03-23T09:53:37;5.43;;;2.70;;
6832;SDS011;3454;42.654;23.378;2024-03-23T09:58:48;5.22;;;1.70;;
6832;SDS011;3454;42.654;23.378;2024-03-23T10:01:14;4.32;;;2.20;;
6832;SDS011;3454;42.654;23.378;2024-03-23T10:03:46;3.55;;;2.17;;
6832;SDS011;3454;42.654;23.378;2024-03-23T10:06:12;5.53;;;2.30;;
6832;SDS011;3454;42.654;23.378;2024-03-23T10:08:38;2.47;;;1.92;;
6832;SDS011;3454;42.654;23.378;2024-03-23T10:11:13;2.10;;;1.70;;
6832;SDS011;3454;42.654;23.378;2024-03-23T10:13:43;3.60;;;2.35;;
6832;SDS011;3454;42.654;23.378;2024-03-23T10:16:09;2.60;;;1.73;;
6832;SDS011;3454;42.654;23.378;2024-03-23T10:18:38;3.30;;;1.95;;
6832;SDS011;3454;42.654;23.378;2024-03-23T10:23:30;1.95;;;1.73;;
6832;SDS011;3454;42.654;23.378;2024-03-23T10:26:41;4.03;;;2.30;;
6832;SDS011;3454;42.654;23.378;2024-03-23T10:28:52;1.70;;;1.60;;
6832;SDS011;3454;42.654;23.378;2024-03-23T10:31:26;2.80;;;1.77;;
6832;SDS011;3454;42.654;23.378;2024-03-23T10:33:53;5.35;;;2.30;;
6832;SDS011;3454;42.654;23.378;2024-03-23T10:36:23;7.90;;;2.22;;
6832;SDS011;3454;42.654;23.378;2024-03-23T10:38:50;3.42;;;1.92;;
6832;SDS011;3454;42.654;23.378;2024-03-23T10:41:17;2.13;;;1.52;;
6832;SDS011;3454;42.654;23.378;2024-03-23T10:43:47;4.47;;;1.90;;
6832;SDS011;3454;42.654;23.378;2024-03-23T10:46:14;3.40;;;2.10;;
6832;SDS011;3454;42.654;23.378;2024-03-23T10:48:40;3.15;;;1.80;;
6832;SDS011;3454;42.654;23.378;2024-03-23T10:51:06;7.25;;;2.65;;
6832;SDS011;3454;42.654;23.378;2024-03-23T10:53:34;3.67;;;2.38;;
6832;SDS011;3454;42.654;23.378;2024-03-23T10:56:02;6.30;;;2.25;;
6832;SDS011;3454;42.654;23.378;2024-03-23T10:58:31;2.08;;;1.80;;
6832;SDS011;3454;42.654;23.378;2024-03-23T11:01:02;4.70;;;2.22;;
6832;SDS011;3454;42.654;23.378;2024-03-23T11:06:00;4.40;;;2.30;;
6832;SDS011;3454;42.654;23.378;2024-03-23T11:08:29;5.63;;;2.65;;
6832;SDS011;3454;42.654;23.378;2024-03-23T11:11:17;3.50;;;2.50;;
6832;SDS011;3454;42.654;23.378;2024-03-23T11:13:44;3.05;;;1.67;;
6832;SDS011;3454;42.654;23.378;2024-03-23T11:16:21;7.25;;;2.25;;
6832;SDS011;3454;42.654;23.378;2024-03-23T11:18:48;3.92;;;2.45;;
6832;SDS011;3454;42.654;23.378;2024-03-23T11:24:36;4.60;;;2.25;;
6832;SDS011;3454;42.654;23.378;2024-03-23T11:27:06;2.63;;;2.03;;
6832;SDS011;3454;42.654;23.378;2024-03-23T11:29:41;3.35;;;2.28;;
6832;SDS011;3454;42.654;23.378;2024-03-23T11:32:07;6.38;;;2.03;;
6832;SDS011;3454;42.654;23.378;2024-03-23T11:34:35;2.20;;;2.00;;
6832;SDS011;3454;42.654;23.378;2024-03-23T11:37:05;4.95;;;2.28;;
6832;SDS011;3454;42.654;23.378;2024-03-23T11:39:31;3.63;;;1.92;;
6832;SDS011;3454;42.654;23.378;2024-03-23T11:41:57;4.38;;;2.00;;
6832;SDS011;3454;42.654;23.378;2024-03-23T11:44:23;3.88;;;2.00;;
6832;SDS011;3454;42.654;23.378;2024-03-23T11:46:51;3.15;;;2.25;;
6832;SDS011;3454;42.654;23.378;2024-03-23T11:51:47;2.85;;;2.00;;
6832;SDS011;3454;42.654;23.378;2024-03-23T11:54:13;2.42;;;1.77;;
6832;SDS011;3454;42.654;23.378;2024-03-23T11:56:39;2.55;;;1.77;;
6832;SDS011;3454;42.654;23.378;2024-03-23T11:59:05;6.03;;;2.13;;
6832;SDS011;3454;42.654;23.378;2024-03-23T12:01:31;1.92;;;1.80;;
6832;SDS011;3454;42.654;23.378;2024-03-23T12:03:57;2.88;;;1.83;;
6832;SDS011;3454;42.654;23.378;2024-03-23T12:06:23;3.38;;;1.92;;
6832;SDS011;3454;42.654;23.378;2024-03-23T12:08:48;4.00;;;2.20;;
6832;SDS011;3454;42.654;23.378;2024-03-23T12:11:17;3.67;;;2.22;;
6832;SDS011;3454;42.654;23.378;2024-03-23T12:13:43;3.88;;;1.80;;
6832;SDS011;3454;42.654;23.378;2024-03-23T12:18:48;3.72;;;2.17;;
6832;SDS011;3454;42.654;23.378;2024-03-23T12:21:15;2.58;;;2.13;;
6832;SDS011;3454;42.654;23.378;2024-03-23T12:23:41;3.35;;;1.98;;
6832;SDS011;3454;42.654;23.378;2024-03-23T12:26:10;3.03;;;1.73;;
6832;SDS011;3454;42.654;23.378;2024-03-23T12:28:37;3.35;;;2.03;;
6832;SDS011;3454;42.654;23.378;2024-03-23T12:31:03;3.25;;;2.22;;
6832;SDS011;3454;42.654;23.378;2024-03-23T12:33:28;3.90;;;2.70;;
6832;SDS011;3454;42.654;23.378;2024-03-23T12:35:54;3.00;;;2.03;;
6832;SDS011;3454;42.654;23.378;2024-03-23T12:38:20;3.70;;;2.30;;
6832;SDS011;3454;42.654;23.378;2024-03-23T12:40:46;3.40;;;1.98;;
6832;SDS011;3454;42.654;23.378;2024-03-23T12:43:13;1.98;;;1.70;;
6832;SDS011;3454;42.654;23.378;2024-03-23T12:45:39;5.07;;;2.45;;
6832;SDS011;3454;42.654;23.378;2024-03-23T12:48:05;3.08;;;1.58;;
6832;SDS011;3454;42.654;23.378;2024-03-23T12:50:31;1.73;;;1.23;;
6832;SDS011;3454;42.654;23.378;2024-03-23T12:52:57;1.90;;;1.55;;
6832;SDS011;3454;42.654;23.378;2024-03-23T12:55:23;2.38;;;1.63;;
6832;SDS011;3454;42.654;23.378;2024-03-23T12:57:48;3.22;;;2.42;;
6832;SDS011;3454;42.654;23.378;2024-03-23T13:00:14;2.20;;;1.60;;
6832;SDS011;3454;42.654;23.378;2024-03-23T13:02:43;1.58;;;1.45;;
6832;SDS011;3454;42.654;23.378;2024-03-23T13:05:09;1.45;;;1.35;;
6832;SDS011;3454;42.654;23.378;2024-03-23T13:07:35;1.88;;;1.52;;
6832;SDS011;3454;42.654;23.378;2024-03-23T13:10:03;2.40;;;1.30;;
6832;SDS011;3454;42.654;23.378;2024-03-23T13:12:29;1.25;;;1.10;;
6832;SDS011;3454;42.654;23.378;2024-03-23T13:14:54;1.33;;;0.90;;
6832;SDS011;3454;42.654;23.378;2024-03-23T13:17:20;1.10;;;1.00;;
6832;SDS011;3454;42.654;23.378;2024-03-23T13:19:46;1.20;;;1.10;;
6832;SDS011;3454;42.654;23.378;2024-03-23T13:22:11;0.90;;;0.82;;
6832;SDS011;3454;42.654;23.378;2024-03-23T13:24:37;2.38;;;1.05;;
6832;SDS011;3454;42.654;23.378;2024-03-23T13:27:03;0.98;;;0.93;;
6832;SDS011;3454;42.654;23.378;2024-03-23T13:29:33;1.40;;;0.98;;
6832;SDS011;3454;42.654;23.378;2024-03-23T13:32:00;1.92;;;0.82;;
6832;SDS011;3454;42.654;23.378;2024-03-23T13:34:26;1.33;;;0.75;;
6832;SDS011;3454;42.654;23.378;2024-03-23T13:36:51;1.92;;;0.90;;
6832;SDS011;3454;42.654;23.378;2024-03-23T13:39:17;1.77;;;0.80;;
6832;SDS011;3454;42.654;23.378;2024-03-23T13:41:43;0.98;;;0.75;;
6832;SDS011;3454;42.654;23.378;2024-03-23T13:44:10;0.93;;;0.90;;
6832;SDS011;3454;42.654;23.378;2024-03-23T13:46:37;1.38;;;0.70;;
6832;SDS011;3454;42.654;23.378;2024-03-23T13:49:08;0.98;;;0.65;;
6832;SDS011;3454;42.654;23.378;2024-03-23T13:51:46;3.08;;;1.20;;
6832;SDS011;3454;42.654;23.378;2024-03-23T13:54:12;1.48;;;1.00;;
6832;SDS011;3454;42.654;23.378;2024-03-23T13:56:38;2.92;;;1.23;;
6832;SDS011;3454;42.654;23.378;2024-03-23T13:59:03;1.10;;;0.57;;
6832;SDS011;3454;42.654;23.378;2024-03-23T14:01:29;1.20;;;0.85;;
6832;SDS011;3454;42.654;23.378;2024-03-23T14:03:55;2.00;;;1.02;;
6832;SDS011;3454;42.654;23.378;2024-03-23T14:06:20;0.70;;;0.70;;
6832;SDS011;3454;42.654;23.378;2024-03-23T14:08:46;2.72;;;1.38;;
6832;SDS011;3454;42.654;23.378;2024-03-23T14:11:14;1.50;;;1.30;;
6832;SDS011;3454;42.654;23.378;2024-03-23T14:13:40;2.90;;;1.40;;
6832;SDS011;3454;42.654;23.378;2024-03-23T14:16:05;1.73;;;1.40;;
6832;SDS011;3454;42.654;23.378;2024-03-23T14:18:31;1.98;;;1.10;;
6832;SDS011;3454;42.654;23.378;2024-03-23T14:20:58;1.77;;;1.00;;
6832;SDS011;3454;42.654;23.378;2024-03-23T14:23:25;1.33;;;1.02;;
6832;SDS011;3454;42.654;23.378;2024-03-23T14:25:56;2.55;;;1.40;;
6832;SDS011;3454;42.654;23.378;2024-03-23T14:28:24;1.67;;;0.98;;
6832;SDS011;3454;42.654;23.378;2024-03-23T14:30:50;2.42;;;1.30;;
6832;SDS011;3454;42.654;23.378;2024-03-23T14:33:17;0.75;;;0.63;;
6832;SDS011;3454;42.654;23.378;2024-03-23T14:35:54;0.45;;;0.45;;
6832;SDS011;3454;42.654;23.378;2024-03-23T14:38:23;1.40;;;0.68;;
6832;SDS011;3454;42.654;23.378;2024-03-23T14:40:49;0.80;;;0.65;;
6832;SDS011;3454;42.654;23.378;2024-03-23T14:43:18;1.00;;;0.70;;
6832;SDS011;3454;42.654;23.378;2024-03-23T14:48:32;0.63;;;0.40;;
6832;SDS011;3454;42.654;23.378;2024-03-23T14:50:58;0.40;;;0.32;;
6832;SDS011;3454;42.654;23.378;2024-03-23T14:53:25;0.30;;;0.30;;
6832;SDS011;3454;42.654;23.378;2024-03-23T14:55:55;0.57;;;0.45;;
6832;SDS011;3454;42.654;23.378;2024-03-23T14:58:21;0.43;;;0.32;;
6832;SDS011;3454;42.654;23.378;2024-03-23T15:00:48;0.20;;;0.20;;
6832;SDS011;3454;42.654;23.378;2024-03-23T15:03:14;0.20;;;0.20;;
6832;SDS011;3454;42.654;23.378;2024-03-23T15:05:39;1.10;;;0.65;;
6832;SDS011;3454;42.654;23.378;2024-03-23T15:08:05;0.70;;;0.63;;
6832;SDS011;3454;42.654;23.378;2024-03-23T15:10:33;0.35;;;0.35;;
6832;SDS011;3454;42.654;23.378;2024-03-23T15:12:58;0.30;;;0.30;;
6832;SDS011;3454;42.654;23.378;2024-03-23T15:15:24;0.80;;;0.60;;
6832;SDS011;3454;42.654;23.378;2024-03-23T15:17:50;0.50;;;0.50;;
6832;SDS011;3454;42.654;23.378;2024-03-23T15:20:16;1.30;;;0.98;;
6832;SDS011;3454;42.654;23.378;2024-03-23T15:22:41;1.13;;;0.60;;
6832;SDS011;3454;42.654;23.378;2024-03-23T15:25:07;0.40;;;0.40;;
6832;SDS011;3454;42.654;23.378;2024-03-23T15:27:36;0.95;;;0.50;;
6832;SDS011;3454;42.654;23.378;2024-03-23T15:30:01;0.50;;;0.50;;
6832;SDS011;3454;42.654;23.378;2024-03-23T15:32:34;0.80;;;0.43;;
6832;SDS011;3454;42.654;23.378;2024-03-23T15:35:00;0.30;;;0.30;;
6832;SDS011;3454;42.654;23.378;2024-03-23T15:37:26;1.20;;;0.60;;
6832;SDS011;3454;42.654;23.378;2024-03-23T15:39:51;3.28;;;0.88;;
6832;SDS011;3454;42.654;23.378;2024-03-23T15:42:25;0.50;;;0.50;;
6832;SDS011;3454;42.654;23.378;2024-03-23T15:44:50;0.28;;;0.20;;
6832;SDS011;3454;42.654;23.378;2024-03-23T15:47:16;0.52;;;0.50;;
6832;SDS011;3454;42.654;23.378;2024-03-23T15:49:42;3.60;;;0.52;;
6832;SDS011;3454;42.654;23.378;2024-03-23T15:52:08;1.02;;;0.47;;
6832;SDS011;3454;42.654;23.378;2024-03-23T15:54:34;1.20;;;0.75;;
6832;SDS011;3454;42.654;23.378;2024-03-23T15:56:59;0.50;;;0.47;;
6832;SDS011;3454;42.654;23.378;2024-03-23T15:59:25;0.82;;;0.50;;
6832;SDS011;3454;42.654;23.378;2024-03-23T16:01:51;1.40;;;0.80;;
6832;SDS011;3454;42.654;23.378;2024-03-23T16:04:17;0.85;;;0.50;;
6832;SDS011;3454;42.654;23.378;2024-03-23T16:06:43;0.63;;;0.47;;
6832;SDS011;3454;42.654;23.378;2024-03-23T16:09:09;0.73;;;0.57;;
6832;SDS011;3454;42.654;23.378;2024-03-23T16:11:34;0.82;;;0.45;;